Time;durP1;ratioP1;P1;durP2;ratioP2;P2;SDS_P1;SDS_P2;PMS_P1;PMS_P2;Temp;Humidity;BMP_temperature;BMP_pressure;BME280_temperature;BME280_humidity;BME280_pressure;Samples;Min_cycle;Max_cycle;Signal;HPM_P1;HPM_P2
2021/06/27 00:01:18;;;;;;;23.40;11.03;;;15.50;99.90;;;;;;5014564;28;20219;-87
2021/06/27 00:03:44;;;;;;;21.67;11.47;;;15.50;99.90;;;;;;5026796;28;20339;-85
2021/06/27 00:06:10;;;;;;;27.80;12.20;;;15.60;99.90;;;;;;4994539;28;20293;-85
2021/06/27 00:08:37;;;;;;;18.97;9.70;;;15.60;99.90;;;;;;5025874;28;20567;-86
2021/06/27 00:11:05;;;;;;;22.90;12.17;;;15.60;99.90;;;;;;5042393;28;20923;-88
2021/06/27 00:13:31;;;;;;;21.23;9.97;;;15.60;99.90;;;;;;5029020;28;20227;-87
2021/06/27 00:15:58;;;;;;;29.23;11.93;;;15.70;99.90;;;;;;4997603;28;20220;-86
2021/06/27 00:18:26;;;;;;;25.93;12.80;;;15.70;99.90;;;;;;5011386;28;20215;-86
2021/06/27 00:20:56;;;;;;;29.10;11.83;;;15.70;99.90;;;;;;5013400;28;20218;-86
2021/06/27 00:23:24;;;;;;;22.03;9.13;;;15.70;99.90;;;;;;5028112;28;20201;-86
2021/06/27 00:25:51;;;;;;;22.77;10.90;;;15.70;99.90;;;;;;5011984;28;20951;-87
2021/06/27 00:28:17;;;;;;;22.10;9.03;;;15.70;99.90;;;;;;5009638;28;20305;-86
2021/06/27 00:30:45;;;;;;;21.43;9.83;;;15.70;99.90;;;;;;5012639;28;20230;-87
2021/06/27 00:33:11;;;;;;;18.83;9.87;;;15.70;99.90;;;;;;5010531;28;20222;-88
2021/06/27 00:35:37;;;;;;;20.43;10.13;;;15.70;99.90;;;;;;5009630;28;20268;-88
2021/06/27 00:38:04;;;;;;;19.70;10.07;;;15.70;99.90;;;;;;5011335;28;20217;-84
2021/06/27 00:40:32;;;;;;;18.67;9.13;;;15.70;99.90;;;;;;5010033;28;20223;-86
2021/06/27 00:42:58;;;;;;;18.43;9.77;;;15.70;99.90;;;;;;5029074;28;20232;-86
2021/06/27 00:45:26;;;;;;;24.00;10.20;;;15.70;99.90;;;;;;5012670;28;20326;-86
2021/06/27 00:47:54;;;;;;;25.13;10.20;;;15.70;99.90;;;;;;5024503;28;20693;-84
2021/06/27 00:50:23;;;;;;;20.13;10.03;;;15.70;99.90;;;;;;4994944;28;20647;-84
2021/06/27 00:52:49;;;;;;;20.27;11.30;;;15.80;99.90;;;;;;5012494;28;20223;-83
2021/06/27 00:55:15;;;;;;;18.13;10.20;;;15.70;99.90;;;;;;5012308;28;20226;-85
2021/06/27 00:57:46;;;;;;;19.20;9.37;;;15.80;99.90;;;;;;5014167;28;20222;-85
2021/06/27 01:00:20;;;;;;;19.97;11.20;;;15.80;99.90;;;;;;5031833;28;20219;-85
2021/06/27 01:02:46;;;;;;;21.63;10.67;;;15.80;99.90;;;;;;5014856;28;20297;-85
2021/06/27 01:05:18;;;;;;;16.17;10.60;;;15.80;99.90;;;;;;5014632;28;20183;-84
2021/06/27 01:07:44;;;;;;;16.47;8.37;;;15.80;99.90;;;;;;5032441;28;20218;-85
2021/06/27 01:10:11;;;;;;;18.53;9.40;;;15.80;99.90;;;;;;5013230;28;20222;-83
2021/06/27 01:12:36;;;;;;;17.40;9.63;;;15.80;99.90;;;;;;4995797;28;20218;-83
2021/06/27 01:15:05;;;;;;;20.97;10.60;;;15.90;99.90;;;;;;5015381;28;20226;-83
2021/06/27 01:17:31;;;;;;;21.97;11.17;;;15.90;99.90;;;;;;5032571;28;20265;-86
2021/06/27 01:19:56;;;;;;;21.57;8.90;;;15.90;99.90;;;;;;5014746;28;20209;-85
2021/06/27 01:22:24;;;;;;;18.03;8.80;;;15.90;99.90;;;;;;5030380;28;20859;-87
2021/06/27 01:24:50;;;;;;;20.03;10.67;;;15.90;99.90;;;;;;5015318;28;20222;-84
2021/06/27 01:27:16;;;;;;;19.93;10.20;;;15.90;99.90;;;;;;5014205;28;20222;-86
2021/06/27 01:29:43;;;;;;;18.43;9.20;;;15.90;99.90;;;;;;5014485;28;20195;-84
2021/06/27 01:32:11;;;;;;;22.53;9.67;;;15.90;99.90;;;;;;5014120;28;21243;-84
2021/06/27 01:34:43;;;;;;;20.77;10.27;;;15.90;99.90;;;;;;5013465;28;20214;-85
2021/06/27 01:37:08;;;;;;;29.43;10.60;;;15.90;99.90;;;;;;5015076;28;20215;-84
2021/06/27 01:39:35;;;;;;;19.60;10.43;;;15.90;99.90;;;;;;5015911;28;20414;-86
2021/06/27 01:42:02;;;;;;;20.53;10.40;;;15.90;99.90;;;;;;5027475;28;20230;-88
2021/06/27 01:44:28;;;;;;;22.70;9.47;;;15.90;99.90;;;;;;5016750;28;20207;-85
2021/06/27 01:46:57;;;;;;;23.37;10.67;;;15.90;99.90;;;;;;5030932;28;20458;-89
2021/06/27 01:49:24;;;;;;;22.00;9.63;;;15.90;99.90;;;;;;5031289;28;20227;-84
2021/06/27 01:51:50;;;;;;;20.07;9.53;;;15.90;99.90;;;;;;4996993;28;20266;-86
2021/06/27 01:54:16;;;;;;;19.97;10.67;;;15.90;99.90;;;;;;5030099;28;20229;-87
2021/06/27 01:56:42;;;;;;;20.57;10.27;;;15.90;99.90;;;;;;5015269;28;20187;-89
2021/06/27 01:59:09;;;;;;;22.27;10.07;;;15.90;99.90;;;;;;4998624;28;20201;-87
2021/06/27 02:01:38;;;;;;;16.53;9.10;;;15.90;99.90;;;;;;5031759;28;20218;-88
2021/06/27 02:04:06;;;;;;;26.90;9.90;;;15.80;99.90;;;;;;4998134;28;20795;-87
2021/06/27 02:06:35;;;;;;;22.77;10.10;;;15.80;99.90;;;;;;5016879;28;20247;-85
2021/06/27 02:09:08;;;;;;;27.47;11.20;;;15.80;99.90;;;;;;5016531;28;20402;-89
2021/06/27 02:11:34;;;;;;;20.60;9.63;;;15.80;99.90;;;;;;5013889;28;20203;-85
2021/06/27 02:14:00;;;;;;;19.27;8.90;;;15.80;99.90;;;;;;5016143;28;20597;-87
2021/06/27 02:16:27;;;;;;;16.07;9.23;;;15.90;99.90;;;;;;4997088;28;20215;-89
2021/06/27 02:18:54;;;;;;;23.37;10.20;;;15.90;99.90;;;;;;5016464;28;20225;-86
2021/06/27 02:21:32;;;;;;;19.43;8.83;;;15.90;99.90;;;;;;5013803;28;20214;-86
2021/06/27 02:23:59;;;;;;;19.40;9.87;;;15.80;99.90;;;;;;5009566;28;20253;-88
2021/06/27 02:26:26;;;;;;;21.23;11.00;;;15.90;99.90;;;;;;4995169;28;20222;-90
2021/06/27 02:28:53;;;;;;;22.70;9.67;;;15.80;99.90;;;;;;5009880;28;20800;-85
2021/06/27 02:31:20;;;;;;;22.43;10.40;;;15.80;99.90;;;;;;5013057;28;20243;-85
2021/06/27 02:33:46;;;;;;;19.13;10.07;;;15.80;99.90;;;;;;5031894;28;20345;-87
2021/06/27 02:36:12;;;;;;;25.30;10.07;;;15.80;99.90;;;;;;4995497;28;20348;-86
2021/06/27 02:38:39;;;;;;;21.50;9.93;;;15.70;99.90;;;;;;5015104;28;20507;-86
2021/06/27 02:41:07;;;;;;;23.50;9.90;;;15.60;99.90;;;;;;5013855;28;20414;-86
2021/06/27 02:43:33;;;;;;;19.53;8.77;;;15.50;99.90;;;;;;5014318;28;20227;-86
2021/06/27 02:45:58;;;;;;;19.10;9.73;;;15.40;99.90;;;;;;4997292;28;20227;-86
2021/06/27 02:48:25;;;;;;;26.53;10.60;;;15.40;99.90;;;;;;4991823;28;20234;-86
2021/06/27 02:50:51;;;;;;;16.43;8.97;;;15.50;99.90;;;;;;5011962;28;20218;-85
2021/06/27 02:53:17;;;;;;;22.17;10.63;;;15.50;99.90;;;;;;5015016;28;20571;-88
2021/06/27 02:55:43;;;;;;;19.03;9.67;;;15.40;99.90;;;;;;5014212;28;20223;-89
2021/06/27 02:58:09;;;;;;;23.87;10.40;;;15.40;99.90;;;;;;5012164;28;20223;-87
2021/06/27 03:00:35;;;;;;;15.57;8.13;;;15.30;99.90;;;;;;4981100;28;20423;-89
2021/06/27 03:03:01;;;;;;;23.97;9.07;;;15.30;99.90;;;;;;4994728;28;20234;-86
2021/06/27 03:05:27;;;;;;;16.67;8.73;;;15.20;99.90;;;;;;4995973;28;20228;-88
2021/06/27 03:07:53;;;;;;;20.87;9.43;;;15.20;99.90;;;;;;5029847;28;20694;-88
2021/06/27 03:10:19;;;;;;;19.97;11.13;;;15.20;99.90;;;;;;4994899;28;20216;-88
2021/06/27 03:12:48;;;;;;;20.40;10.07;;;15.10;99.90;;;;;;5029416;28;20579;-87
2021/06/27 03:15:15;;;;;;;17.37;8.90;;;15.00;99.90;;;;;;5011871;28;20274;-88
2021/06/27 03:17:41;;;;;;;15.97;7.60;;;15.10;99.90;;;;;;4988480;28;20192;-87
2021/06/27 03:20:10;;;;;;;17.57;10.67;;;15.00;99.90;;;;;;5015043;28;20226;-87
2021/06/27 03:22:37;;;;;;;21.50;10.03;;;15.00;99.90;;;;;;5013007;28;20222;-87
2021/06/27 03:25:04;;;;;;;22.50;10.20;;;15.00;99.90;;;;;;5029067;28;20227;-86
2021/06/27 03:27:31;;;;;;;23.90;10.53;;;14.90;99.90;;;;;;4996113;28;20746;-88
2021/06/27 03:29:57;;;;;;;20.53;9.80;;;14.80;99.90;;;;;;5028114;28;20316;-87
2021/06/27 03:32:23;;;;;;;16.73;9.57;;;14.80;99.90;;;;;;5015544;28;20197;-87
2021/06/27 03:34:49;;;;;;;24.20;10.13;;;14.80;99.90;;;;;;4995302;28;20226;-86
2021/06/27 03:37:14;;;;;;;35.20;9.23;;;14.80;99.90;;;;;;4981334;28;20215;-86
2021/06/27 03:39:40;;;;;;;21.33;10.23;;;14.80;99.90;;;;;;4998282;28;20219;-85
2021/06/27 03:42:07;;;;;;;20.90;9.90;;;14.70;99.90;;;;;;4994374;28;20646;-88
2021/06/27 03:44:32;;;;;;;20.77;11.37;;;14.60;99.90;;;;;;5028521;28;20963;-90
2021/06/27 03:46:58;;;;;;;20.73;10.40;;;14.60;99.90;;;;;;5012609;28;20231;-88
2021/06/27 03:49:24;;;;;;;24.13;11.63;;;14.60;99.90;;;;;;5004908;28;20214;-89
2021/06/27 03:51:51;;;;;;;27.60;11.70;;;14.80;99.90;;;;;;5011116;28;20211;-88
2021/06/27 03:54:17;;;;;;;20.60;10.33;;;14.90;99.90;;;;;;5010753;28;20313;-87
2021/06/27 03:56:44;;;;;;;27.93;10.47;;;14.90;99.90;;;;;;5012694;28;20226;-88
2021/06/27 03:59:10;;;;;;;23.13;11.63;;;14.90;99.90;;;;;;5011311;28;20189;-90
2021/06/27 04:01:36;;;;;;;17.50;9.10;;;14.90;99.90;;;;;;4993906;28;21650;-89
2021/06/27 04:04:03;;;;;;;22.37;9.10;;;15.00;99.90;;;;;;4995560;28;20235;-87
2021/06/27 04:06:29;;;;;;;24.77;11.30;;;15.00;99.90;;;;;;5010263;28;21254;-88
2021/06/27 04:08:54;;;;;;;22.57;11.67;;;15.10;99.90;;;;;;5012706;28;20223;-87
2021/06/27 04:11:20;;;;;;;18.80;8.90;;;15.00;99.90;;;;;;5030807;28;20432;-89
2021/06/27 04:13:46;;;;;;;18.87;10.07;;;15.10;99.90;;;;;;4999193;28;20192;-88
2021/06/27 04:16:12;;;;;;;29.37;11.00;;;15.10;99.90;;;;;;4992999;28;20214;-88
2021/06/27 04:18:40;;;;;;;19.10;9.93;;;15.10;99.90;;;;;;5010492;28;20215;-88
2021/06/27 04:21:07;;;;;;;16.70;9.60;;;15.00;99.90;;;;;;5001488;28;22266;-87
2021/06/27 04:23:35;;;;;;;23.23;8.93;;;15.10;99.90;;;;;;5007269;28;20229;-87
2021/06/27 04:26:02;;;;;;;22.70;9.90;;;15.10;99.90;;;;;;5010252;28;20223;-87
2021/06/27 04:28:28;;;;;;;22.27;8.60;;;15.20;99.90;;;;;;4994964;28;20217;-89
2021/06/27 04:30:54;;;;;;;19.20;8.83;;;15.30;99.90;;;;;;5009835;28;20263;-88
2021/06/27 04:33:20;;;;;;;17.70;8.63;;;15.30;99.90;;;;;;4982777;28;21034;-88
2021/06/27 04:35:46;;;;;;;19.67;9.23;;;15.40;99.90;;;;;;5034759;28;20226;-88
2021/06/27 04:38:17;;;;;;;22.83;8.20;;;15.50;99.90;;;;;;4982137;28;20187;-89
2021/06/27 04:40:44;;;;;;;19.27;8.70;;;15.60;99.90;;;;;;5016267;28;20218;-89
2021/06/27 04:43:10;;;;;;;20.93;9.30;;;15.70;99.90;;;;;;5048245;28;20230;-89
2021/06/27 04:45:40;;;;;;;17.77;8.93;;;15.70;99.90;;;;;;5018646;28;20225;-89
2021/06/27 04:48:07;;;;;;;18.57;9.00;;;15.80;99.90;;;;;;5014230;28;20234;-87
2021/06/27 04:50:33;;;;;;;22.10;8.10;;;15.90;99.90;;;;;;5032876;28;20225;-86
2021/06/27 04:52:59;;;;;;;19.43;9.30;;;16.00;99.90;;;;;;5032041;28;20234;-89
2021/06/27 04:55:25;;;;;;;14.97;8.20;;;16.10;99.90;;;;;;5032307;28;20218;-88
2021/06/27 04:57:50;;;;;;;18.40;8.63;;;16.20;99.90;;;;;;5000081;28;20215;-89
2021/06/27 05:00:17;;;;;;;15.10;7.20;;;16.30;99.90;;;;;;5001209;28;21014;-90
2021/06/27 05:02:43;;;;;;;13.27;6.73;;;16.30;99.90;;;;;;4998810;28;20234;-87
2021/06/27 05:05:10;;;;;;;11.23;6.83;;;16.40;99.90;;;;;;5017060;28;20222;-89
2021/06/27 05:07:36;;;;;;;15.43;7.40;;;16.60;99.90;;;;;;5030891;28;20227;-87
2021/06/27 05:10:04;;;;;;;12.93;7.40;;;16.70;99.90;;;;;;5001623;28;20238;-87
2021/06/27 05:12:29;;;;;;;12.77;6.30;;;16.80;99.90;;;;;;5016647;28;20222;-87
2021/06/27 05:14:55;;;;;;;17.87;7.87;;;17.00;99.90;;;;;;4983930;28;20192;-87
2021/06/27 05:17:21;;;;;;;14.87;7.40;;;17.40;99.90;;;;;;5017651;28;20637;-86
2021/06/27 05:19:47;;;;;;;18.60;7.23;;;18.30;99.90;;;;;;5018002;28;20551;-86
2021/06/27 05:22:13;;;;;;;11.37;7.07;;;19.70;99.90;;;;;;5015128;28;20726;-88
2021/06/27 05:24:39;;;;;;;9.17;6.00;;;20.40;99.90;;;;;;4997274;28;20219;-88
2021/06/27 05:27:05;;;;;;;6.80;4.80;;;20.00;99.90;;;;;;5025204;28;20236;-89
2021/06/27 05:29:31;;;;;;;10.20;4.53;;;20.10;99.90;;;;;;5016146;28;20187;-88
2021/06/27 05:31:57;;;;;;;9.07;5.77;;;20.90;99.90;;;;;;5001843;28;20215;-88
2021/06/27 05:34:23;;;;;;;6.07;3.80;;;21.20;99.90;;;;;;5014113;28;20683;-87
2021/06/27 05:36:48;;;;;;;7.60;4.93;;;21.60;99.90;;;;;;4996899;28;21213;-88
2021/06/27 05:39:15;;;;;;;7.83;4.70;;;21.90;99.90;;;;;;4997998;28;20222;-89
2021/06/27 05:41:43;;;;;;;7.07;4.63;;;21.90;99.90;;;;;;4998988;28;20206;-89
2021/06/27 05:44:09;;;;;;;6.77;3.83;;;22.10;99.90;;;;;;5029245;28;20222;-87
2021/06/27 05:46:35;;;;;;;6.97;4.13;;;21.60;99.90;;;;;;5016320;28;20234;-89
2021/06/27 05:49:05;;;;;;;8.27;4.83;;;21.80;99.90;;;;;;5015991;28;20313;-89
2021/06/27 05:51:32;;;;;;;8.60;4.53;;;21.30;99.90;;;;;;5002123;28;20694;-88
2021/06/27 05:53:58;;;;;;;4.43;3.37;;;20.70;99.90;;;;;;5032118;28;20191;-87
2021/06/27 05:56:24;;;;;;;6.20;3.77;;;20.50;99.90;;;;;;5030627;28;20211;-87
2021/06/27 05:58:50;;;;;;;6.00;4.20;;;20.60;99.90;;;;;;5017842;28;21205;-88
2021/06/27 06:01:18;;;;;;;6.40;3.87;;;20.60;99.90;;;;;;5012388;28;20223;-88
2021/06/27 06:03:44;;;;;;;6.57;3.70;;;20.70;99.90;;;;;;5015957;28;20264;-87
2021/06/27 06:06:12;;;;;;;5.97;3.63;;;21.20;99.90;;;;;;5014854;28;20247;-87
2021/06/27 06:08:42;;;;;;;9.13;4.80;;;21.10;99.90;;;;;;5013525;28;20183;-88
2021/06/27 06:11:09;;;;;;;8.73;4.80;;;21.00;99.90;;;;;;4998552;28;20214;-88
2021/06/27 06:13:35;;;;;;;9.33;5.30;;;21.50;99.90;;;;;;5014427;28;20235;-88
2021/06/27 06:16:06;;;;;;;7.80;4.97;;;21.50;99.90;;;;;;4980931;28;21261;-88
2021/06/27 06:18:32;;;;;;;9.53;5.43;;;20.50;99.90;;;;;;5013919;28;20319;-86
2021/06/27 06:20:58;;;;;;;9.07;5.10;;;20.60;99.90;;;;;;5028763;28;20196;-87
2021/06/27 06:23:25;;;;;;;9.10;6.87;;;20.30;99.90;;;;;;5029739;28;20218;-87
2021/06/27 06:25:50;;;;;;;13.87;5.50;;;20.40;99.90;;;;;;5012620;28;20219;-87
2021/06/27 06:28:16;;;;;;;9.03;5.23;;;20.70;99.90;;;;;;5029348;28;20313;-85
2021/06/27 06:30:42;;;;;;;9.37;4.67;;;21.00;99.90;;;;;;5013499;28;20606;-86
2021/06/27 06:33:11;;;;;;;6.53;5.00;;;20.80;99.90;;;;;;5015438;28;20255;-88
2021/06/27 06:35:41;;;;;;;6.47;4.40;;;19.90;99.90;;;;;;5015947;28;21202;-91
2021/06/27 06:38:08;;;;;;;6.53;4.70;;;19.30;99.90;;;;;;5012712;28;20990;-89
2021/06/27 06:40:35;;;;;;;10.03;5.17;;;19.00;99.90;;;;;;4998637;28;20215;-87
2021/06/27 06:43:02;;;;;;;8.07;5.13;;;18.70;99.90;;;;;;5014433;28;20314;-90
2021/06/27 06:45:28;;;;;;;7.73;5.17;;;18.80;99.90;;;;;;5029616;28;20233;-88
2021/06/27 06:47:54;;;;;;;11.57;5.20;;;18.70;99.90;;;;;;5013699;28;20242;-88
2021/06/27 06:50:20;;;;;;;7.70;5.30;;;18.70;99.90;;;;;;5013589;28;20191;-88
2021/06/27 06:52:46;;;;;;;8.47;4.97;;;18.80;99.90;;;;;;4998991;28;20215;-87
2021/06/27 06:55:12;;;;;;;8.13;4.80;;;18.70;99.90;;;;;;5031194;28;20280;-87
2021/06/27 06:57:38;;;;;;;5.20;3.70;;;18.60;99.90;;;;;;5013864;28;20693;-87
2021/06/27 07:00:06;;;;;;;8.77;4.53;;;18.70;99.90;;;;;;5031467;28;20230;-87
2021/06/27 07:02:31;;;;;;;7.47;4.67;;;18.70;99.90;;;;;;4982137;28;20274;-89
2021/06/27 07:04:57;;;;;;;7.47;4.70;;;18.80;99.90;;;;;;5029439;28;20232;-87
2021/06/27 07:07:23;;;;;;;8.00;5.17;;;18.90;99.90;;;;;;5030683;28;20816;-86
2021/06/27 07:09:49;;;;;;;9.57;5.30;;;18.70;99.90;;;;;;5012617;28;20218;-85
2021/06/27 07:12:15;;;;;;;10.83;6.00;;;18.90;99.90;;;;;;5000165;28;20593;-89
2021/06/27 07:14:41;;;;;;;10.30;7.03;;;19.20;99.90;;;;;;5014756;28;20685;-87
2021/06/27 07:17:06;;;;;;;9.23;5.67;;;19.30;99.90;;;;;;5013316;28;20231;-90
2021/06/27 07:19:32;;;;;;;12.20;5.67;;;19.40;99.90;;;;;;5012218;28;20219;-89
2021/06/27 07:21:58;;;;;;;8.23;5.30;;;19.40;99.90;;;;;;4986997;28;20229;-87
2021/06/27 07:24:24;;;;;;;9.57;6.10;;;19.60;99.90;;;;;;5012975;28;20223;-85
2021/06/27 07:26:49;;;;;;;7.80;5.80;;;20.00;99.90;;;;;;5012120;28;20208;-89
2021/06/27 07:29:15;;;;;;;10.23;6.13;;;20.50;99.90;;;;;;5030021;28;20252;-85
2021/06/27 07:31:41;;;;;;;9.67;5.60;;;20.70;99.90;;;;;;4979631;28;20246;-87
2021/06/27 07:34:07;;;;;;;10.80;4.47;;;20.40;99.90;;;;;;4997187;28;20638;-85
2021/06/27 07:36:32;;;;;;;7.90;5.13;;;20.10;99.90;;;;;;4993855;28;20871;-83
2021/06/27 07:38:58;;;;;;;7.27;4.77;;;19.80;99.90;;;;;;4998023;28;20610;-85
2021/06/27 07:41:24;;;;;;;5.57;4.53;;;19.80;99.90;;;;;;5012117;28;20197;-84
2021/06/27 07:43:50;;;;;;;7.07;5.07;;;19.70;99.90;;;;;;5013208;28;20231;-85
2021/06/27 07:46:17;;;;;;;7.30;4.40;;;19.90;99.90;;;;;;4996540;28;20245;-85
2021/06/27 07:48:43;;;;;;;10.43;5.27;;;20.00;99.90;;;;;;5018111;28;20297;-87
2021/06/27 07:51:09;;;;;;;8.87;5.07;;;20.20;99.90;;;;;;5015092;28;20305;-88
2021/06/27 07:53:35;;;;;;;8.03;5.53;;;20.80;99.90;;;;;;5013852;28;20191;-85
2021/06/27 07:56:01;;;;;;;8.67;5.20;;;21.30;99.90;;;;;;4997728;28;20725;-88
2021/06/27 07:58:27;;;;;;;8.50;5.30;;;20.50;99.90;;;;;;5013442;28;20592;-85
2021/06/27 08:00:53;;;;;;;6.73;5.57;;;20.80;99.90;;;;;;4992878;28;20289;-89
2021/06/27 08:03:19;;;;;;;7.83;5.47;;;21.10;99.90;;;;;;5013588;28;20709;-90
2021/06/27 08:05:44;;;;;;;6.87;4.57;;;21.10;99.90;;;;;;4999515;28;20192;-87
2021/06/27 08:08:10;;;;;;;13.23;6.23;;;21.00;99.90;;;;;;4997806;28;20189;-90
2021/06/27 08:10:36;;;;;;;10.67;6.30;;;20.80;99.90;;;;;;4996028;28;20218;-87
2021/06/27 08:13:03;;;;;;;8.17;6.27;;;21.30;99.90;;;;;;4994140;28;20227;-89
2021/06/27 08:15:28;;;;;;;9.27;5.63;;;21.10;99.90;;;;;;5013523;28;20222;-88
2021/06/27 08:17:54;;;;;;;9.03;6.07;;;21.10;99.90;;;;;;4996389;28;20230;-88
2021/06/27 08:20:22;;;;;;;8.93;5.37;;;21.30;99.90;;;;;;5010879;28;21319;-87
2021/06/27 08:22:48;;;;;;;8.27;4.70;;;20.80;99.90;;;;;;5008667;28;20285;-90
2021/06/27 08:25:16;;;;;;;6.33;4.87;;;21.30;99.90;;;;;;5009621;28;20218;-88
2021/06/27 08:27:42;;;;;;;8.47;4.23;;;21.40;99.90;;;;;;4993785;28;20218;-86
2021/06/27 08:30:10;;;;;;;8.67;5.03;;;21.00;99.90;;;;;;5026236;28;20218;-90
2021/06/27 08:32:42;;;;;;;6.83;4.53;;;21.50;99.90;;;;;;4981609;28;20199;-88
2021/06/27 08:35:19;;;;;;;7.37;5.27;;;22.00;99.90;;;;;;4996708;28;20215;-85
2021/06/27 08:37:45;;;;;;;12.00;6.80;;;22.60;99.90;;;;;;5029161;28;20225;-88
2021/06/27 08:40:13;;;;;;;7.37;4.97;;;21.90;99.90;;;;;;5028305;28;20215;-91
2021/06/27 08:42:39;;;;;;;5.57;3.90;;;21.40;99.90;;;;;;4995150;28;20277;-88
2021/06/27 08:45:09;;;;;;;9.00;5.37;;;21.60;99.90;;;;;;5012622;28;20221;-85
2021/06/27 08:47:36;;;;;;;8.07;5.07;;;21.50;99.90;;;;;;5028703;28;20253;-89
2021/06/27 08:50:04;;;;;;;7.30;5.07;;;22.00;99.90;;;;;;5029329;28;20557;-85
2021/06/27 08:52:33;;;;;;;8.53;5.00;;;21.90;99.90;;;;;;5026681;28;20272;-89
2021/06/27 08:54:59;;;;;;;7.63;5.27;;;22.40;99.90;;;;;;5028634;28;20227;-84
2021/06/27 08:57:26;;;;;;;8.60;5.73;;;22.90;99.90;;;;;;5012124;28;20222;-85
2021/06/27 08:59:53;;;;;;;6.55;4.28;;;22.80;99.90;;;;;;5012018;28;20194;-87
2021/06/27 09:02:19;;;;;;;7.28;4.95;;;22.10;99.90;;;;;;5013615;28;20201;-83
2021/06/27 09:04:45;;;;;;;6.07;4.23;;;22.10;99.90;;;;;;4992822;28;20296;-88
2021/06/27 09:07:34;;;;;;;7.55;4.20;;;22.40;99.90;;;;;;5010830;28;20214;-84
2021/06/27 09:10:21;;;;;;;6.97;4.63;;;22.30;99.90;;;;;;5010769;28;20690;-83
2021/06/27 09:13:05;;;;;;;8.98;4.72;;;22.70;99.90;;;;;;5013015;28;20226;-84
2021/06/27 09:15:49;;;;;;;9.30;5.35;;;22.40;99.90;;;;;;5010278;28;20210;-84
2021/06/27 09:18:15;;;;;;;7.00;4.38;;;22.90;99.90;;;;;;5011678;28;20223;-85
2021/06/27 09:20:42;;;;;;;7.43;4.03;;;22.80;99.90;;;;;;5014535;28;20206;-84
2021/06/27 09:23:10;;;;;;;5.35;3.92;;;22.10;99.90;;;;;;5013402;28;20308;-85
2021/06/27 09:25:36;;;;;;;6.97;4.35;;;21.90;99.90;;;;;;5014911;28;20219;-86
2021/06/27 09:28:07;;;;;;;5.72;4.07;;;22.40;99.90;;;;;;5030582;28;20212;-84
2021/06/27 09:30:47;;;;;;;7.20;4.55;;;22.40;99.90;;;;;;5014356;28;20219;-84
2021/06/27 09:33:23;;;;;;;6.40;3.77;;;22.20;99.90;;;;;;5011707;28;20223;-83
2021/06/27 09:35:57;;;;;;;7.20;4.57;;;22.30;99.90;;;;;;5030160;28;20174;-84
2021/06/27 09:38:44;;;;;;;6.53;4.15;;;22.30;99.90;;;;;;5015738;28;20268;-83
2021/06/27 09:41:34;;;;;;;5.70;3.73;;;22.50;99.90;;;;;;5015347;28;20213;-84
2021/06/27 09:44:06;;;;;;;6.87;4.77;;;21.90;99.90;;;;;;5014717;28;20237;-83
2021/06/27 09:46:40;;;;;;;6.00;4.45;;;22.20;99.90;;;;;;5016167;28;20238;-83
2021/06/27 09:49:10;;;;;;;10.68;4.72;;;22.00;99.90;;;;;;5014339;28;20314;-84
2021/06/27 09:51:38;;;;;;;7.10;4.73;;;22.20;99.90;;;;;;5027642;28;20219;-86
2021/06/27 09:54:15;;;;;;;7.77;4.77;;;22.10;99.90;;;;;;5027562;28;20222;-84
2021/06/27 09:56:41;;;;;;;8.00;4.57;;;22.50;99.90;;;;;;5012684;28;20211;-82
2021/06/27 09:59:10;;;;;;;5.43;4.13;;;22.40;99.90;;;;;;5015208;28;20257;-84
2021/06/27 10:01:37;;;;;;;5.40;3.90;;;22.10;99.90;;;;;;5015255;28;20241;-87
2021/06/27 10:04:05;;;;;;;5.93;3.93;;;22.00;99.90;;;;;;5028686;28;20235;-84
2021/06/27 10:06:33;;;;;;;4.37;3.57;;;21.60;99.90;;;;;;5016494;28;20215;-85
2021/06/27 10:09:19;;;;;;;7.37;3.60;;;21.60;99.90;;;;;;5014192;28;20186;-83
2021/06/27 10:11:58;;;;;;;4.67;3.23;;;22.00;99.90;;;;;;5011719;28;20812;-84
2021/06/27 10:14:27;;;;;;;5.90;3.53;;;22.30;99.90;;;;;;5012913;28;20175;-87
2021/06/27 10:16:55;;;;;;;5.37;3.40;;;22.30;99.90;;;;;;5029745;28;20608;-86
2021/06/27 10:19:21;;;;;;;4.70;3.63;;;21.80;99.90;;;;;;4998278;28;20257;-83
2021/06/27 10:21:47;;;;;;;6.87;4.40;;;21.80;99.90;;;;;;4995125;28;20218;-86
2021/06/27 10:24:12;;;;;;;6.63;3.73;;;21.70;99.90;;;;;;5011185;28;20257;-85
2021/06/27 10:26:39;;;;;;;6.87;3.67;;;21.70;99.90;;;;;;5010700;28;20224;-86
2021/06/27 10:29:05;;;;;;;6.10;4.10;;;22.00;99.90;;;;;;5009743;28;20432;-84
2021/06/27 10:31:31;;;;;;;5.00;3.47;;;21.70;99.90;;;;;;5007648;28;20449;-86
2021/06/27 10:33:57;;;;;;;3.30;2.83;;;21.90;99.90;;;;;;5010689;28;20699;-84
2021/06/27 10:36:29;;;;;;;3.80;3.40;;;21.50;99.90;;;;;;5007942;28;20292;-88
2021/06/27 10:38:57;;;;;;;5.40;3.77;;;21.10;99.90;;;;;;5029497;28;20417;-86
2021/06/27 10:41:59;;;;;;;3.43;3.03;;;21.20;99.90;;;;;;5009496;28;20245;-86
2021/06/27 10:44:30;;;;;;;4.83;3.63;;;21.80;99.90;;;;;;5025471;28;20305;-85
2021/06/27 10:46:59;;;;;;;5.53;3.80;;;22.10;99.90;;;;;;5025452;28;20260;-85
2021/06/27 10:49:31;;;;;;;6.97;3.57;;;21.90;99.90;;;;;;5025248;28;20597;-81
2021/06/27 10:52:05;;;;;;;4.63;3.30;;;21.90;99.90;;;;;;5008979;28;20227;-83
2021/06/27 10:54:32;;;;;;;6.00;3.90;;;21.80;99.90;;;;;;5008697;28;20217;-83
2021/06/27 10:57:03;;;;;;;8.27;3.57;;;21.50;99.90;;;;;;5009205;28;20204;-83
2021/06/27 10:59:45;;;;;;;4.87;3.67;;;21.60;99.90;;;;;;5007934;28;20310;-84
2021/06/27 11:02:31;;;;;;;12.40;8.17;;;21.40;99.90;;;;;;5006495;28;20280;-87
2021/06/27 11:05:22;;;;;;;7.57;4.23;;;21.40;99.90;;;;;;5009415;28;20222;-85
2021/06/27 11:07:49;;;;;;;59.70;38.20;;;21.30;99.90;;;;;;5009800;28;20222;-85
2021/06/27 11:10:23;;;;;;;7.53;6.33;;;21.60;99.90;;;;;;5013566;28;20337;-82
2021/06/27 11:12:58;;;;;;;4.90;3.50;;;21.60;99.90;;;;;;5011516;28;20213;-85
2021/06/27 11:15:28;;;;;;;5.20;3.33;;;21.40;99.90;;;;;;5009533;28;20226;-82
2021/06/27 11:17:55;;;;;;;11.27;6.83;;;21.60;99.90;;;;;;5026202;28;20776;-84
2021/06/27 11:20:22;;;;;;;7.13;3.77;;;21.60;99.90;;;;;;5011724;28;20257;-84
2021/06/27 11:22:50;;;;;;;5.40;3.17;;;21.30;99.90;;;;;;5028623;28;20261;-84
2021/06/27 11:25:46;;;;;;;4.83;3.53;;;21.40;99.90;;;;;;5011165;28;20224;-83
2021/06/27 11:28:18;;;;;;;10.73;5.50;;;21.80;99.90;;;;;;5010026;28;20210;-84
2021/06/27 11:31:14;;;;;;;9.17;5.00;;;22.20;99.90;;;;;;5009153;28;20591;-87
2021/06/27 11:33:40;;;;;;;30.33;15.93;;;21.90;99.90;;;;;;5025905;28;20219;-86
2021/06/27 11:36:24;;;;;;;29.47;16.07;;;22.00;99.90;;;;;;5025902;28;20229;-85
2021/06/27 11:38:50;;;;;;;11.03;6.97;;;21.50;99.90;;;;;;5010250;28;20767;-85
2021/06/27 11:41:22;;;;;;;5.40;3.53;;;21.40;99.90;;;;;;4977869;28;20179;-82
2021/06/27 11:43:59;;;;;;;6.10;3.60;;;21.50;99.90;;;;;;5011456;28;20245;-85
2021/06/27 11:46:35;;;;;;;6.53;3.10;;;21.30;99.90;;;;;;5027312;28;20262;-84
2021/06/27 11:49:09;;;;;;;4.80;3.47;;;21.20;99.90;;;;;;5012313;28;20222;-82
2021/06/27 11:51:38;;;;;;;7.67;3.33;;;20.70;99.90;;;;;;5027587;28;20217;-83
2021/06/27 11:54:06;;;;;;;9.00;4.63;;;21.00;99.90;;;;;;5027648;28;20553;-85
2021/06/27 11:57:04;;;;;;;6.70;5.27;;;21.30;99.90;;;;;;5013661;28;20192;-86
2021/06/27 11:59:41;;;;;;;23.37;14.17;;;21.30;99.90;;;;;;5006416;28;20215;-85
2021/06/27 12:02:09;;;;;;;7.83;4.73;;;21.00;99.90;;;;;;5017613;28;20256;-83
2021/06/27 12:04:50;;;;;;;6.00;3.33;;;21.30;99.90;;;;;;5022196;28;20749;-83
2021/06/27 12:07:54;;;;;;;4.97;3.23;;;21.40;99.90;;;;;;5022382;28;20231;-86
2021/06/27 12:10:23;;;;;;;5.20;3.37;;;21.10;99.90;;;;;;5006928;28;20223;-84
2021/06/27 12:12:58;;;;;;;3.30;3.00;;;21.30;99.90;;;;;;4999827;28;20211;-85
2021/06/27 12:15:45;;;;;;;5.57;4.30;;;21.00;99.90;;;;;;5020787;28;20373;-82
2021/06/27 12:18:23;;;;;;;5.50;3.07;;;21.10;99.90;;;;;;5003326;28;20244;-86
2021/06/27 12:20:57;;;;;;;4.57;2.93;;;21.20;99.90;;;;;;5003028;28;20183;-87
2021/06/27 12:23:39;;;;;;;4.70;3.40;;;20.90;99.90;;;;;;5003380;28;20211;-82
2021/06/27 12:26:10;;;;;;;6.67;3.27;;;20.80;99.90;;;;;;5020329;28;20223;-84
2021/06/27 12:28:47;;;;;;;10.87;4.33;;;20.80;99.90;;;;;;5002973;28;20716;-81
2021/06/27 12:31:23;;;;;;;5.70;2.97;;;20.80;99.90;;;;;;5003943;28;20268;-81
2021/06/27 12:33:58;;;;;;;5.90;3.13;;;20.80;99.90;;;;;;5001947;28;20218;-85
2021/06/27 12:36:39;;;;;;;7.50;3.83;;;20.80;99.90;;;;;;5005245;28;20222;-84
2021/06/27 12:39:16;;;;;;;4.40;2.80;;;20.90;99.90;;;;;;5006944;28;20218;-85
2021/06/27 12:41:42;;;;;;;2.97;2.40;;;20.80;99.90;;;;;;5020556;28;20186;-86
2021/06/27 12:44:10;;;;;;;8.20;3.83;;;20.90;99.90;;;;;;5002346;28;20223;-81
2021/06/27 12:46:41;;;;;;;7.20;3.47;;;20.90;99.90;;;;;;5002515;28;20239;-85
2021/06/27 12:49:28;;;;;;;4.87;3.73;;;21.00;99.90;;;;;;5020876;28;20689;-86